Lamy, New Mexico
Current Conditions -  °F | °C
As of 8:53 PM on Tuesday 27 Jan 2015 (Local Time) from KSAF Reporting Station
Clear Clear  
Wind Chill:   Ceiling: Unl
Heat Index:   Visibility: 10mi
Dew Point: -1°   Wind: 7mph
Humidity: 62%   Direction: 340°NNW
Pressure: 30.26"   Gusts: NA
Location:  35.48°N, 105.88°W
Report Text: KSAF 280353Z AUTO 34006KT 10SM CLR 06/M01 A3026 RMK AO2 SLP219 T00561011
Loading
Personal Weather Stations






























Interactive Weather Map New forecast layout! Learn more

10-Day Weather Forecast

Advertisements
Track Severe Weather on mobile